sensor_id;sensor_type;location;lat;lon;timestamp;temperature;humidity
9537;DHT22;4807;48.024;11.726;2023-11-19T00:01:57;4.30;99.90
9537;DHT22;4807;48.024;11.726;2023-11-19T00:05:06;4.40;99.90
9537;DHT22;4807;48.024;11.726;2023-11-19T00:08:18;4.40;99.90
9537;DHT22;4807;48.024;11.726;2023-11-19T00:11:28;4.30;99.90
9537;DHT22;4807;48.024;11.726;2023-11-19T00:14:37;4.30;99.90
9537;DHT22;4807;48.024;11.726;2023-11-19T00:17:46;4.40;99.90
9537;DHT22;4807;48.024;11.726;2023-11-19T00:20:56;4.40;99.90
9537;DHT22;4807;48.024;11.726;2023-11-19T00:24:05;4.40;99.90
9537;DHT22;4807;48.024;11.726;2023-11-19T00:27:17;4.50;99.90
9537;DHT22;4807;48.024;11.726;2023-11-19T00:30:25;4.50;99.90
9537;DHT22;4807;48.024;11.726;2023-11-19T00:33:33;4.60;99.90
9537;DHT22;4807;48.024;11.726;2023-11-19T00:36:42;4.50;99.90
9537;DHT22;4807;48.024;11.726;2023-11-19T00:39:51;4.60;99.90
9537;DHT22;4807;48.024;11.726;2023-11-19T00:43:01;4.60;99.90
9537;DHT22;4807;48.024;11.726;2023-11-19T00:46:10;4.60;99.90
9537;DHT22;4807;48.024;11.726;2023-11-19T00:49:19;4.60;99.90
9537;DHT22;4807;48.024;11.726;2023-11-19T00:52:27;4.70;99.90
9537;DHT22;4807;48.024;11.726;2023-11-19T00:55:37;4.60;99.90
9537;DHT22;4807;48.024;11.726;2023-11-19T00:58:54;4.70;99.90
9537;DHT22;4807;48.024;11.726;2023-11-19T01:02:03;4.70;99.90
9537;DHT22;4807;48.024;11.726;2023-11-19T01:05:13;4.70;99.90
9537;DHT22;4807;48.024;11.726;2023-11-19T01:08:22;4.70;99.90
9537;DHT22;4807;48.024;11.726;2023-11-19T01:11:34;4.80;99.90
9537;DHT22;4807;48.024;11.726;2023-11-19T01:14:47;4.80;99.90
9537;DHT22;4807;48.024;11.726;2023-11-19T01:17:56;4.80;99.90
9537;DHT22;4807;48.024;11.726;2023-11-19T01:21:05;4.80;99.90
9537;DHT22;4807;48.024;11.726;2023-11-19T01:24:13;4.90;99.90
9537;DHT22;4807;48.024;11.726;2023-11-19T01:27:22;4.90;99.90
9537;DHT22;4807;48.024;11.726;2023-11-19T01:30:32;4.90;99.90
9537;DHT22;4807;48.024;11.726;2023-11-19T01:33:40;5.00;99.90
9537;DHT22;4807;48.024;11.726;2023-11-19T01:36:49;5.00;99.90
9537;DHT22;4807;48.024;11.726;2023-11-19T01:39:58;5.00;99.90
9537;DHT22;4807;48.024;11.726;2023-11-19T01:43:06;5.00;99.90
9537;DHT22;4807;48.024;11.726;2023-11-19T01:46:16;5.00;99.90
9537;DHT22;4807;48.024;11.726;2023-11-19T01:49:25;5.10;99.90
9537;DHT22;4807;48.024;11.726;2023-11-19T01:52:34;5.10;99.90
9537;DHT22;4807;48.024;11.726;2023-11-19T01:55:46;5.10;99.90
9537;DHT22;4807;48.024;11.726;2023-11-19T01:58:56;5.20;99.90
9537;DHT22;4807;48.024;11.726;2023-11-19T02:02:11;5.20;99.90
9537;DHT22;4807;48.024;11.726;2023-11-19T02:05:20;5.20;99.90
9537;DHT22;4807;48.024;11.726;2023-11-19T02:08:30;5.30;99.90
9537;DHT22;4807;48.024;11.726;2023-11-19T02:11:39;5.30;99.90
9537;DHT22;4807;48.024;11.726;2023-11-19T02:14:48;5.40;99.90
9537;DHT22;4807;48.024;11.726;2023-11-19T02:18:17;5.40;99.90
9537;DHT22;4807;48.024;11.726;2023-11-19T02:21:26;5.50;99.90
9537;DHT22;4807;48.024;11.726;2023-11-19T02:24:35;5.60;99.90
9537;DHT22;4807;48.024;11.726;2023-11-19T02:27:51;5.70;99.90
9537;DHT22;4807;48.024;11.726;2023-11-19T02:31:04;5.80;99.90
9537;DHT22;4807;48.024;11.726;2023-11-19T02:34:17;5.90;99.90
9537;DHT22;4807;48.024;11.726;2023-11-19T02:37:25;6.00;99.90
9537;DHT22;4807;48.024;11.726;2023-11-19T02:40:34;6.00;99.90
9537;DHT22;4807;48.024;11.726;2023-11-19T02:43:44;6.10;99.90
9537;DHT22;4807;48.024;11.726;2023-11-19T02:46:55;6.10;99.90
9537;DHT22;4807;48.024;11.726;2023-11-19T02:50:07;6.20;99.90
9537;DHT22;4807;48.024;11.726;2023-11-19T02:53:21;6.30;99.90
9537;DHT22;4807;48.024;11.726;2023-11-19T02:56:30;6.20;99.90
9537;DHT22;4807;48.024;11.726;2023-11-19T02:59:44;6.40;99.90
9537;DHT22;4807;48.024;11.726;2023-11-19T03:02:52;6.40;99.90
9537;DHT22;4807;48.024;11.726;2023-11-19T03:06:07;6.40;99.90
9537;DHT22;4807;48.024;11.726;2023-11-19T03:09:16;6.60;99.90
9537;DHT22;4807;48.024;11.726;2023-11-19T03:12:25;6.60;99.90
9537;DHT22;4807;48.024;11.726;2023-11-19T03:15:34;6.70;99.90
9537;DHT22;4807;48.024;11.726;2023-11-19T03:18:43;6.90;99.90
9537;DHT22;4807;48.024;11.726;2023-11-19T03:21:51;7.00;99.90
9537;DHT22;4807;48.024;11.726;2023-11-19T03:25:01;7.20;99.90
9537;DHT22;4807;48.024;11.726;2023-11-19T03:28:09;7.30;99.90
9537;DHT22;4807;48.024;11.726;2023-11-19T03:31:21;7.40;99.90
9537;DHT22;4807;48.024;11.726;2023-11-19T03:34:30;7.50;99.90
9537;DHT22;4807;48.024;11.726;2023-11-19T03:37:39;7.70;99.90
9537;DHT22;4807;48.024;11.726;2023-11-19T03:40:47;7.60;99.90
9537;DHT22;4807;48.024;11.726;2023-11-19T03:43:56;7.80;99.90
9537;DHT22;4807;48.024;11.726;2023-11-19T03:47:05;7.80;99.90
9537;DHT22;4807;48.024;11.726;2023-11-19T03:50:15;7.80;99.90
9537;DHT22;4807;48.024;11.726;2023-11-19T03:53:23;7.80;99.90
9537;DHT22;4807;48.024;11.726;2023-11-19T03:56:32;7.80;99.90
9537;DHT22;4807;48.024;11.726;2023-11-19T03:59:40;7.90;99.90
9537;DHT22;4807;48.024;11.726;2023-11-19T04:02:49;7.90;99.90
9537;DHT22;4807;48.024;11.726;2023-11-19T04:05:58;8.00;99.90
9537;DHT22;4807;48.024;11.726;2023-11-19T04:09:06;8.10;99.90
9537;DHT22;4807;48.024;11.726;2023-11-19T04:12:14;8.10;99.90
9537;DHT22;4807;48.024;11.726;2023-11-19T04:15:23;8.30;99.90
9537;DHT22;4807;48.024;11.726;2023-11-19T04:18:33;8.30;99.90
9537;DHT22;4807;48.024;11.726;2023-11-19T04:21:41;8.40;99.90
9537;DHT22;4807;48.024;11.726;2023-11-19T04:24:49;8.40;99.90
9537;DHT22;4807;48.024;11.726;2023-11-19T04:27:58;8.50;99.90
9537;DHT22;4807;48.024;11.726;2023-11-19T04:31:06;8.50;99.90
9537;DHT22;4807;48.024;11.726;2023-11-19T04:34:17;8.50;99.90
9537;DHT22;4807;48.024;11.726;2023-11-19T04:37:25;8.50;99.90
9537;DHT22;4807;48.024;11.726;2023-11-19T04:40:34;8.50;99.90
9537;DHT22;4807;48.024;11.726;2023-11-19T04:43:42;8.60;99.90
9537;DHT22;4807;48.024;11.726;2023-11-19T04:46:51;8.60;99.90
9537;DHT22;4807;48.024;11.726;2023-11-19T04:50:00;8.60;99.90
9537;DHT22;4807;48.024;11.726;2023-11-19T04:53:09;8.70;99.90
9537;DHT22;4807;48.024;11.726;2023-11-19T04:56:17;8.70;99.90
9537;DHT22;4807;48.024;11.726;2023-11-19T04:59:26;8.80;99.90
9537;DHT22;4807;48.024;11.726;2023-11-19T05:02:35;8.90;99.90
9537;DHT22;4807;48.024;11.726;2023-11-19T05:05:47;8.90;99.90
9537;DHT22;4807;48.024;11.726;2023-11-19T05:08:56;8.90;99.90
9537;DHT22;4807;48.024;11.726;2023-11-19T05:12:12;9.00;99.90
9537;DHT22;4807;48.024;11.726;2023-11-19T05:15:20;9.00;99.90
9537;DHT22;4807;48.024;11.726;2023-11-19T05:18:28;9.10;99.90
9537;DHT22;4807;48.024;11.726;2023-11-19T05:21:38;9.20;99.90
9537;DHT22;4807;48.024;11.726;2023-11-19T05:24:46;9.40;99.90
9537;DHT22;4807;48.024;11.726;2023-11-19T05:27:55;9.50;99.90
9537;DHT22;4807;48.024;11.726;2023-11-19T05:31:04;9.60;99.90
9537;DHT22;4807;48.024;11.726;2023-11-19T05:34:12;9.70;99.90
9537;DHT22;4807;48.024;11.726;2023-11-19T05:37:25;9.60;99.90
9537;DHT22;4807;48.024;11.726;2023-11-19T05:40:33;9.70;99.90
9537;DHT22;4807;48.024;11.726;2023-11-19T05:43:42;9.70;99.90
9537;DHT22;4807;48.024;11.726;2023-11-19T05:46:50;9.70;99.90
9537;DHT22;4807;48.024;11.726;2023-11-19T05:49:58;9.70;99.90
9537;DHT22;4807;48.024;11.726;2023-11-19T05:53:09;9.80;99.90
9537;DHT22;4807;48.024;11.726;2023-11-19T05:56:20;9.80;99.90
9537;DHT22;4807;48.024;11.726;2023-11-19T05:59:29;9.80;99.90
9537;DHT22;4807;48.024;11.726;2023-11-19T06:02:37;9.90;99.90
9537;DHT22;4807;48.024;11.726;2023-11-19T06:05:46;9.80;99.90
9537;DHT22;4807;48.024;11.726;2023-11-19T06:08:57;9.90;99.90
9537;DHT22;4807;48.024;11.726;2023-11-19T06:12:19;9.90;99.90
9537;DHT22;4807;48.024;11.726;2023-11-19T06:15:28;9.90;99.90
9537;DHT22;4807;48.024;11.726;2023-11-19T06:18:36;9.90;99.90
9537;DHT22;4807;48.024;11.726;2023-11-19T06:21:45;9.90;99.90
9537;DHT22;4807;48.024;11.726;2023-11-19T06:24:55;9.90;99.90
9537;DHT22;4807;48.024;11.726;2023-11-19T06:28:03;9.90;99.90
9537;DHT22;4807;48.024;11.726;2023-11-19T06:31:11;9.90;99.90
9537;DHT22;4807;48.024;11.726;2023-11-19T06:34:27;9.90;99.90
9537;DHT22;4807;48.024;11.726;2023-11-19T06:37:36;9.80;99.90
9537;DHT22;4807;48.024;11.726;2023-11-19T06:40:48;9.90;99.90
9537;DHT22;4807;48.024;11.726;2023-11-19T06:44:00;9.90;99.90
9537;DHT22;4807;48.024;11.726;2023-11-19T06:47:08;9.90;99.90
9537;DHT22;4807;48.024;11.726;2023-11-19T06:50:17;9.90;99.90
9537;DHT22;4807;48.024;11.726;2023-11-19T06:53:26;9.90;99.90
9537;DHT22;4807;48.024;11.726;2023-11-19T06:56:36;10.00;99.90
9537;DHT22;4807;48.024;11.726;2023-11-19T06:59:44;10.00;99.90
9537;DHT22;4807;48.024;11.726;2023-11-19T07:02:53;10.00;99.90
9537;DHT22;4807;48.024;11.726;2023-11-19T07:06:01;10.00;99.90
9537;DHT22;4807;48.024;11.726;2023-11-19T07:09:10;10.00;99.90
9537;DHT22;4807;48.024;11.726;2023-11-19T07:12:22;10.10;99.90
9537;DHT22;4807;48.024;11.726;2023-11-19T07:15:31;10.10;99.90
9537;DHT22;4807;48.024;11.726;2023-11-19T07:18:40;10.10;99.90
9537;DHT22;4807;48.024;11.726;2023-11-19T07:21:50;10.10;99.90
9537;DHT22;4807;48.024;11.726;2023-11-19T07:25:01;10.10;99.90
9537;DHT22;4807;48.024;11.726;2023-11-19T07:28:11;10.20;99.90
9537;DHT22;4807;48.024;11.726;2023-11-19T07:31:20;10.20;99.90
9537;DHT22;4807;48.024;11.726;2023-11-19T07:34:30;10.20;99.90
9537;DHT22;4807;48.024;11.726;2023-11-19T07:37:38;10.20;99.90
9537;DHT22;4807;48.024;11.726;2023-11-19T07:40:47;10.30;99.90
9537;DHT22;4807;48.024;11.726;2023-11-19T07:43:59;10.30;99.90
9537;DHT22;4807;48.024;11.726;2023-11-19T07:47:07;10.40;99.90
9537;DHT22;4807;48.024;11.726;2023-11-19T07:50:16;10.40;99.90
9537;DHT22;4807;48.024;11.726;2023-11-19T07:53:27;10.40;99.90
9537;DHT22;4807;48.024;11.726;2023-11-19T07:56:35;10.40;99.90
9537;DHT22;4807;48.024;11.726;2023-11-19T07:59:46;10.50;99.90
9537;DHT22;4807;48.024;11.726;2023-11-19T08:02:54;10.50;99.90
9537;DHT22;4807;48.024;11.726;2023-11-19T08:06:04;10.50;99.90
9537;DHT22;4807;48.024;11.726;2023-11-19T08:09:13;10.50;99.90
9537;DHT22;4807;48.024;11.726;2023-11-19T08:12:22;10.50;99.90
9537;DHT22;4807;48.024;11.726;2023-11-19T08:15:32;10.50;99.90
9537;DHT22;4807;48.024;11.726;2023-11-19T08:18:42;10.50;99.90
9537;DHT22;4807;48.024;11.726;2023-11-19T08:21:50;10.50;99.90
9537;DHT22;4807;48.024;11.726;2023-11-19T08:24:59;10.60;99.90
9537;DHT22;4807;48.024;11.726;2023-11-19T08:28:08;10.60;99.90
9537;DHT22;4807;48.024;11.726;2023-11-19T08:31:17;10.70;99.90
9537;DHT22;4807;48.024;11.726;2023-11-19T08:34:27;10.70;99.90
9537;DHT22;4807;48.024;11.726;2023-11-19T08:37:35;10.70;99.90
9537;DHT22;4807;48.024;11.726;2023-11-19T08:40:44;10.80;99.90
9537;DHT22;4807;48.024;11.726;2023-11-19T08:43:53;10.90;99.90
9537;DHT22;4807;48.024;11.726;2023-11-19T08:47:02;10.90;99.90
9537;DHT22;4807;48.024;11.726;2023-11-19T08:50:11;10.90;99.90
9537;DHT22;4807;48.024;11.726;2023-11-19T08:53:20;11.00;99.90
9537;DHT22;4807;48.024;11.726;2023-11-19T08:56:29;11.00;99.90
9537;DHT22;4807;48.024;11.726;2023-11-19T08:59:40;11.10;99.90
9537;DHT22;4807;48.024;11.726;2023-11-19T09:02:50;11.20;99.90
9537;DHT22;4807;48.024;11.726;2023-11-19T09:05:59;11.20;99.90
9537;DHT22;4807;48.024;11.726;2023-11-19T09:09:08;11.30;99.90
9537;DHT22;4807;48.024;11.726;2023-11-19T09:12:17;11.30;99.90
9537;DHT22;4807;48.024;11.726;2023-11-19T09:15:25;11.30;99.90
9537;DHT22;4807;48.024;11.726;2023-11-19T09:18:35;11.30;99.90
9537;DHT22;4807;48.024;11.726;2023-11-19T09:21:44;11.40;99.90
9537;DHT22;4807;48.024;11.726;2023-11-19T09:24:53;11.30;99.90
9537;DHT22;4807;48.024;11.726;2023-11-19T09:28:02;11.30;99.90
9537;DHT22;4807;48.024;11.726;2023-11-19T09:31:14;11.30;99.90
9537;DHT22;4807;48.024;11.726;2023-11-19T09:34:24;11.50;99.90
9537;DHT22;4807;48.024;11.726;2023-11-19T09:37:33;11.50;99.90
9537;DHT22;4807;48.024;11.726;2023-11-19T09:40:41;11.50;99.90
9537;DHT22;4807;48.024;11.726;2023-11-19T09:43:51;11.70;99.90
9537;DHT22;4807;48.024;11.726;2023-11-19T09:46:59;11.70;99.90
9537;DHT22;4807;48.024;11.726;2023-11-19T09:50:12;11.80;99.90
9537;DHT22;4807;48.024;11.726;2023-11-19T09:53:24;11.90;99.90
9537;DHT22;4807;48.024;11.726;2023-11-19T09:56:33;11.90;99.90
9537;DHT22;4807;48.024;11.726;2023-11-19T09:59:46;11.80;99.90
9537;DHT22;4807;48.024;11.726;2023-11-19T10:02:56;11.80;99.90
9537;DHT22;4807;48.024;11.726;2023-11-19T10:06:08;11.90;99.90
9537;DHT22;4807;48.024;11.726;2023-11-19T10:09:17;12.00;99.90
9537;DHT22;4807;48.024;11.726;2023-11-19T10:12:26;12.00;99.90
9537;DHT22;4807;48.024;11.726;2023-11-19T10:15:36;12.10;99.90
9537;DHT22;4807;48.024;11.726;2023-11-19T10:18:46;12.20;99.90
9537;DHT22;4807;48.024;11.726;2023-11-19T10:22:02;10.60;99.90
9537;DHT22;4807;48.024;11.726;2023-11-19T10:25:25;12.50;99.90
9537;DHT22;4807;48.024;11.726;2023-11-19T10:28:39;12.70;99.90
9537;DHT22;4807;48.024;11.726;2023-11-19T10:31:55;12.70;99.90
9537;DHT22;4807;48.024;11.726;2023-11-19T10:35:25;12.90;99.90
9537;DHT22;4807;48.024;11.726;2023-11-19T10:38:35;13.10;99.90
9537;DHT22;4807;48.024;11.726;2023-11-19T10:41:44;13.30;99.90
9537;DHT22;4807;48.024;11.726;2023-11-19T10:44:53;13.30;99.90
9537;DHT22;4807;48.024;11.726;2023-11-19T10:48:02;13.40;99.90
9537;DHT22;4807;48.024;11.726;2023-11-19T10:51:18;13.60;99.90
9537;DHT22;4807;48.024;11.726;2023-11-19T10:54:32;13.60;99.90
9537;DHT22;4807;48.024;11.726;2023-11-19T10:57:43;13.40;99.90
9537;DHT22;4807;48.024;11.726;2023-11-19T11:00:57;13.20;99.90
9537;DHT22;4807;48.024;11.726;2023-11-19T11:04:13;13.00;99.90
9537;DHT22;4807;48.024;11.726;2023-11-19T11:07:22;13.00;99.90
9537;DHT22;4807;48.024;11.726;2023-11-19T11:10:45;13.20;99.90
9537;DHT22;4807;48.024;11.726;2023-11-19T11:14:01;13.20;99.90
9537;DHT22;4807;48.024;11.726;2023-11-19T11:17:12;13.20;99.90
9537;DHT22;4807;48.024;11.726;2023-11-19T11:20:26;13.30;99.90
9537;DHT22;4807;48.024;11.726;2023-11-19T11:24:16;13.20;99.90
9537;DHT22;4807;48.024;11.726;2023-11-19T11:27:49;13.20;99.90
9537;DHT22;4807;48.024;11.726;2023-11-19T11:31:29;13.30;99.90
9537;DHT22;4807;48.024;11.726;2023-11-19T11:35:06;13.40;99.90
9537;DHT22;4807;48.024;11.726;2023-11-19T11:38:25;13.60;99.90
9537;DHT22;4807;48.024;11.726;2023-11-19T11:41:34;13.80;99.90
9537;DHT22;4807;48.024;11.726;2023-11-19T11:45:00;13.90;99.90
9537;DHT22;4807;48.024;11.726;2023-11-19T11:48:15;16.20;99.90
9537;DHT22;4807;48.024;11.726;2023-11-19T11:51:59;13.70;99.90
9537;DHT22;4807;48.024;11.726;2023-11-19T11:55:10;13.50;99.90
9537;DHT22;4807;48.024;11.726;2023-11-19T11:58:19;13.40;99.90
9537;DHT22;4807;48.024;11.726;2023-11-19T12:01:29;13.40;99.90
9537;DHT22;4807;48.024;11.726;2023-11-19T12:04:39;13.40;99.90
9537;DHT22;4807;48.024;11.726;2023-11-19T12:07:56;13.50;99.90
9537;DHT22;4807;48.024;11.726;2023-11-19T12:11:05;13.70;99.90
9537;DHT22;4807;48.024;11.726;2023-11-19T12:14:15;14.10;99.90
9537;DHT22;4807;48.024;11.726;2023-11-19T12:17:48;14.30;99.90
9537;DHT22;4807;48.024;11.726;2023-11-19T12:20:59;14.50;99.90
9537;DHT22;4807;48.024;11.726;2023-11-19T12:24:11;14.50;99.90
9537;DHT22;4807;48.024;11.726;2023-11-19T12:27:21;14.50;99.90
9537;DHT22;4807;48.024;11.726;2023-11-19T12:30:30;14.50;99.90
9537;DHT22;4807;48.024;11.726;2023-11-19T12:33:42;14.40;99.90
9537;DHT22;4807;48.024;11.726;2023-11-19T12:36:51;14.40;99.90
9537;DHT22;4807;48.024;11.726;2023-11-19T12:40:01;14.30;99.90
9537;DHT22;4807;48.024;11.726;2023-11-19T12:43:21;14.40;99.90
9537;DHT22;4807;48.024;11.726;2023-11-19T12:46:30;14.30;99.90
9537;DHT22;4807;48.024;11.726;2023-11-19T12:49:39;14.20;99.90
9537;DHT22;4807;48.024;11.726;2023-11-19T12:52:55;13.90;99.90
9537;DHT22;4807;48.024;11.726;2023-11-19T12:56:09;13.90;99.90
9537;DHT22;4807;48.024;11.726;2023-11-19T12:59:18;13.70;99.90
9537;DHT22;4807;48.024;11.726;2023-11-19T13:02:45;13.60;99.90
9537;DHT22;4807;48.024;11.726;2023-11-19T13:06:01;13.60;99.90
9537;DHT22;4807;48.024;11.726;2023-11-19T13:09:21;13.60;99.90
9537;DHT22;4807;48.024;11.726;2023-11-19T13:12:32;13.70;99.90
9537;DHT22;4807;48.024;11.726;2023-11-19T13:15:41;13.50;99.90
9537;DHT22;4807;48.024;11.726;2023-11-19T13:18:52;13.30;99.90
9537;DHT22;4807;48.024;11.726;2023-11-19T13:22:02;13.20;99.90
9537;DHT22;4807;48.024;11.726;2023-11-19T13:25:11;13.00;99.90
9537;DHT22;4807;48.024;11.726;2023-11-19T13:28:20;13.00;99.90
9537;DHT22;4807;48.024;11.726;2023-11-19T13:31:29;13.20;99.90
9537;DHT22;4807;48.024;11.726;2023-11-19T13:34:37;13.50;99.90
9537;DHT22;4807;48.024;11.726;2023-11-19T13:37:46;13.60;99.90
9537;DHT22;4807;48.024;11.726;2023-11-19T13:40:54;13.60;99.90
9537;DHT22;4807;48.024;11.726;2023-11-19T13:44:05;13.60;99.90
9537;DHT22;4807;48.024;11.726;2023-11-19T13:47:13;13.40;99.90
9537;DHT22;4807;48.024;11.726;2023-11-19T13:50:22;13.20;99.90
9537;DHT22;4807;48.024;11.726;2023-11-19T13:53:30;13.10;99.90
9537;DHT22;4807;48.024;11.726;2023-11-19T13:56:57;12.90;99.90
9537;DHT22;4807;48.024;11.726;2023-11-19T14:00:11;12.90;99.90
9537;DHT22;4807;48.024;11.726;2023-11-19T14:03:23;13.00;99.90
9537;DHT22;4807;48.024;11.726;2023-11-19T14:06:31;13.00;99.90
9537;DHT22;4807;48.024;11.726;2023-11-19T14:09:42;12.90;99.90
9537;DHT22;4807;48.024;11.726;2023-11-19T14:12:51;12.80;99.90
9537;DHT22;4807;48.024;11.726;2023-11-19T14:16:02;12.70;99.90
9537;DHT22;4807;48.024;11.726;2023-11-19T14:19:12;12.80;99.90
9537;DHT22;4807;48.024;11.726;2023-11-19T14:22:21;12.80;99.90
9537;DHT22;4807;48.024;11.726;2023-11-19T14:25:29;12.80;99.90
9537;DHT22;4807;48.024;11.726;2023-11-19T14:28:38;12.90;99.90
9537;DHT22;4807;48.024;11.726;2023-11-19T14:32:03;13.00;99.90
9537;DHT22;4807;48.024;11.726;2023-11-19T14:35:13;12.90;99.90
9537;DHT22;4807;48.024;11.726;2023-11-19T14:38:22;13.00;99.90
9537;DHT22;4807;48.024;11.726;2023-11-19T14:41:31;13.00;99.90
9537;DHT22;4807;48.024;11.726;2023-11-19T14:44:40;13.00;99.90
9537;DHT22;4807;48.024;11.726;2023-11-19T14:47:50;12.90;99.90
9537;DHT22;4807;48.024;11.726;2023-11-19T14:50:59;12.90;99.90
9537;DHT22;4807;48.024;11.726;2023-11-19T14:54:10;12.70;99.90
9537;DHT22;4807;48.024;11.726;2023-11-19T14:57:21;12.50;99.90
9537;DHT22;4807;48.024;11.726;2023-11-19T15:00:31;12.40;99.90
9537;DHT22;4807;48.024;11.726;2023-11-19T15:03:42;12.00;99.90
9537;DHT22;4807;48.024;11.726;2023-11-19T15:06:56;12.00;99.90
9537;DHT22;4807;48.024;11.726;2023-11-19T15:10:06;11.90;99.90
9537;DHT22;4807;48.024;11.726;2023-11-19T15:13:17;11.70;99.90
9537;DHT22;4807;48.024;11.726;2023-11-19T15:16:25;11.60;99.90
9537;DHT22;4807;48.024;11.726;2023-11-19T15:19:39;11.40;99.90
9537;DHT22;4807;48.024;11.726;2023-11-19T15:22:49;11.20;99.90
9537;DHT22;4807;48.024;11.726;2023-11-19T15:25:58;11.20;99.90
9537;DHT22;4807;48.024;11.726;2023-11-19T15:29:07;11.20;99.90
9537;DHT22;4807;48.024;11.726;2023-11-19T15:32:16;11.10;99.90
9537;DHT22;4807;48.024;11.726;2023-11-19T15:35:27;11.00;99.90
9537;DHT22;4807;48.024;11.726;2023-11-19T15:38:38;10.90;99.90
9537;DHT22;4807;48.024;11.726;2023-11-19T15:41:49;10.90;99.90
9537;DHT22;4807;48.024;11.726;2023-11-19T15:44:58;10.60;99.90
9537;DHT22;4807;48.024;11.726;2023-11-19T15:48:06;10.60;99.90
9537;DHT22;4807;48.024;11.726;2023-11-19T15:51:17;10.50;99.90
9537;DHT22;4807;48.024;11.726;2023-11-19T15:54:26;10.50;99.90
9537;DHT22;4807;48.024;11.726;2023-11-19T15:57:34;10.40;99.90
9537;DHT22;4807;48.024;11.726;2023-11-19T16:00:43;10.50;99.90
9537;DHT22;4807;48.024;11.726;2023-11-19T16:03:53;10.40;99.90
9537;DHT22;4807;48.024;11.726;2023-11-19T16:07:04;10.40;99.90
9537;DHT22;4807;48.024;11.726;2023-11-19T16:10:14;10.40;99.90
9537;DHT22;4807;48.024;11.726;2023-11-19T16:13:30;10.50;99.90
9537;DHT22;4807;48.024;11.726;2023-11-19T16:16:39;10.50;99.90
9537;DHT22;4807;48.024;11.726;2023-11-19T16:19:47;10.60;99.90
9537;DHT22;4807;48.024;11.726;2023-11-19T16:22:57;10.80;99.90
9537;DHT22;4807;48.024;11.726;2023-11-19T16:26:10;10.80;99.90
9537;DHT22;4807;48.024;11.726;2023-11-19T16:29:19;10.90;99.90
9537;DHT22;4807;48.024;11.726;2023-11-19T16:32:28;11.00;99.90
9537;DHT22;4807;48.024;11.726;2023-11-19T16:35:37;10.90;99.90
9537;DHT22;4807;48.024;11.726;2023-11-19T16:38:48;10.80;99.90
9537;DHT22;4807;48.024;11.726;2023-11-19T16:41:56;10.70;99.90
9537;DHT22;4807;48.024;11.726;2023-11-19T16:45:07;10.60;99.90
9537;DHT22;4807;48.024;11.726;2023-11-19T16:48:16;10.50;99.90
9537;DHT22;4807;48.024;11.726;2023-11-19T16:51:25;10.50;99.90
9537;DHT22;4807;48.024;11.726;2023-11-19T16:54:35;9.20;99.90
9537;DHT22;4807;48.024;11.726;2023-11-19T16:57:44;10.40;99.90
9537;DHT22;4807;48.024;11.726;2023-11-19T17:00:54;10.40;99.90
9537;DHT22;4807;48.024;11.726;2023-11-19T17:04:05;10.40;99.90
9537;DHT22;4807;48.024;11.726;2023-11-19T17:07:15;10.30;99.90
9537;DHT22;4807;48.024;11.726;2023-11-19T17:10:29;10.20;99.90
9537;DHT22;4807;48.024;11.726;2023-11-19T17:13:37;10.20;99.90
9537;DHT22;4807;48.024;11.726;2023-11-19T17:16:46;10.10;99.90
9537;DHT22;4807;48.024;11.726;2023-11-19T17:19:54;10.10;99.90
9537;DHT22;4807;48.024;11.726;2023-11-19T17:23:03;10.10;99.90
9537;DHT22;4807;48.024;11.726;2023-11-19T17:26:14;10.20;99.90
9537;DHT22;4807;48.024;11.726;2023-11-19T17:29:22;10.20;99.90
9537;DHT22;4807;48.024;11.726;2023-11-19T17:32:31;10.20;99.90
9537;DHT22;4807;48.024;11.726;2023-11-19T17:35:39;10.10;99.90
9537;DHT22;4807;48.024;11.726;2023-11-19T17:38:48;10.30;99.90
9537;DHT22;4807;48.024;11.726;2023-11-19T17:41:57;10.20;99.90
9537;DHT22;4807;48.024;11.726;2023-11-19T17:45:06;10.10;99.90
9537;DHT22;4807;48.024;11.726;2023-11-19T17:48:16;10.20;99.90
9537;DHT22;4807;48.024;11.726;2023-11-19T17:51:25;10.20;99.90
9537;DHT22;4807;48.024;11.726;2023-11-19T17:54:34;10.10;99.90
9537;DHT22;4807;48.024;11.726;2023-11-19T17:57:44;10.10;99.90
9537;DHT22;4807;48.024;11.726;2023-11-19T18:00:53;9.90;99.90
9537;DHT22;4807;48.024;11.726;2023-11-19T18:04:02;9.80;99.90
9537;DHT22;4807;48.024;11.726;2023-11-19T18:07:11;9.80;99.90
9537;DHT22;4807;48.024;11.726;2023-11-19T18:10:20;9.70;99.90
9537;DHT22;4807;48.024;11.726;2023-11-19T18:13:30;9.90;99.90
9537;DHT22;4807;48.024;11.726;2023-11-19T18:16:42;9.90;99.90
9537;DHT22;4807;48.024;11.726;2023-11-19T18:19:51;10.00;99.90
9537;DHT22;4807;48.024;11.726;2023-11-19T18:23:00;9.90;99.90
9537;DHT22;4807;48.024;11.726;2023-11-19T18:26:10;10.00;99.90
9537;DHT22;4807;48.024;11.726;2023-11-19T18:29:21;10.10;99.90
9537;DHT22;4807;48.024;11.726;2023-11-19T18:32:29;10.00;99.90
9537;DHT22;4807;48.024;11.726;2023-11-19T18:35:39;10.00;99.90
9537;DHT22;4807;48.024;11.726;2023-11-19T18:38:48;10.00;99.90
9537;DHT22;4807;48.024;11.726;2023-11-19T18:41:56;10.00;99.90
9537;DHT22;4807;48.024;11.726;2023-11-19T18:45:07;10.00;99.90
9537;DHT22;4807;48.024;11.726;2023-11-19T18:48:16;9.80;99.90
9537;DHT22;4807;48.024;11.726;2023-11-19T18:51:25;9.70;99.90
9537;DHT22;4807;48.024;11.726;2023-11-19T18:54:34;9.60;99.90
9537;DHT22;4807;48.024;11.726;2023-11-19T18:57:43;9.70;99.90
9537;DHT22;4807;48.024;11.726;2023-11-19T19:00:53;9.70;99.90
9537;DHT22;4807;48.024;11.726;2023-11-19T19:04:01;9.70;99.90
9537;DHT22;4807;48.024;11.726;2023-11-19T19:07:10;9.70;99.90
9537;DHT22;4807;48.024;11.726;2023-11-19T19:10:19;9.70;99.90
9537;DHT22;4807;48.024;11.726;2023-11-19T19:13:27;9.80;99.90
9537;DHT22;4807;48.024;11.726;2023-11-19T19:16:41;9.70;99.90
9537;DHT22;4807;48.024;11.726;2023-11-19T19:19:50;9.60;99.90
9537;DHT22;4807;48.024;11.726;2023-11-19T19:22:58;9.60;99.90
9537;DHT22;4807;48.024;11.726;2023-11-19T19:26:07;9.70;99.90
9537;DHT22;4807;48.024;11.726;2023-11-19T19:29:18;9.70;99.90
9537;DHT22;4807;48.024;11.726;2023-11-19T19:32:28;9.80;99.90
9537;DHT22;4807;48.024;11.726;2023-11-19T19:35:37;9.80;99.90
9537;DHT22;4807;48.024;11.726;2023-11-19T19:38:47;9.80;99.90
9537;DHT22;4807;48.024;11.726;2023-11-19T19:41:56;9.80;99.90
9537;DHT22;4807;48.024;11.726;2023-11-19T19:45:06;9.80;99.90
9537;DHT22;4807;48.024;11.726;2023-11-19T19:48:17;9.80;99.90
9537;DHT22;4807;48.024;11.726;2023-11-19T19:51:27;9.90;99.90
9537;DHT22;4807;48.024;11.726;2023-11-19T19:54:36;9.90;99.90
9537;DHT22;4807;48.024;11.726;2023-11-19T19:57:45;9.80;99.90
9537;DHT22;4807;48.024;11.726;2023-11-19T20:00:54;9.80;99.90
9537;DHT22;4807;48.024;11.726;2023-11-19T20:04:04;9.90;99.90
9537;DHT22;4807;48.024;11.726;2023-11-19T20:07:13;9.90;99.90
9537;DHT22;4807;48.024;11.726;2023-11-19T20:10:22;9.90;99.90
9537;DHT22;4807;48.024;11.726;2023-11-19T20:13:30;10.00;99.90
9537;DHT22;4807;48.024;11.726;2023-11-19T20:16:39;10.00;99.90
9537;DHT22;4807;48.024;11.726;2023-11-19T20:19:49;10.00;99.90
9537;DHT22;4807;48.024;11.726;2023-11-19T20:22:57;10.10;99.90
9537;DHT22;4807;48.024;11.726;2023-11-19T20:26:06;10.00;99.90
9537;DHT22;4807;48.024;11.726;2023-11-19T20:29:15;10.00;99.90
9537;DHT22;4807;48.024;11.726;2023-11-19T20:32:24;10.10;99.90